sensor_id;sensor_type;location;lat;lon;timestamp;temperature;humidity
43695;DHT22;29300;43.560;1.294;2022-12-18T00:01:43;6.20;99.90
43695;DHT22;29300;43.560;1.294;2022-12-18T00:04:25;6.10;99.90
43695;DHT22;29300;43.560;1.294;2022-12-18T00:06:51;6.10;99.90
43695;DHT22;29300;43.560;1.294;2022-12-18T00:09:18;6.20;99.90
43695;DHT22;29300;43.560;1.294;2022-12-18T00:11:44;6.20;99.90
43695;DHT22;29300;43.560;1.294;2022-12-18T00:14:12;6.20;99.90
43695;DHT22;29300;43.560;1.294;2022-12-18T00:16:38;6.10;99.90
43695;DHT22;29300;43.560;1.294;2022-12-18T00:19:04;6.20;99.90
43695;DHT22;29300;43.560;1.294;2022-12-18T00:21:31;6.30;99.90
43695;DHT22;29300;43.560;1.294;2022-12-18T00:23:58;6.30;99.90
43695;DHT22;29300;43.560;1.294;2022-12-18T00:26:29;6.20;99.90
43695;DHT22;29300;43.560;1.294;2022-12-18T00:28:58;6.20;99.90
43695;DHT22;29300;43.560;1.294;2022-12-18T00:31:25;6.30;99.90
43695;DHT22;29300;43.560;1.294;2022-12-18T00:33:52;6.30;99.90
43695;DHT22;29300;43.560;1.294;2022-12-18T00:36:20;6.30;99.90
43695;DHT22;29300;43.560;1.294;2022-12-18T00:38:47;6.30;99.90
43695;DHT22;29300;43.560;1.294;2022-12-18T00:41:14;6.40;99.90
43695;DHT22;29300;43.560;1.294;2022-12-18T00:44:04;6.40;99.90
43695;DHT22;29300;43.560;1.294;2022-12-18T00:46:30;6.50;99.90
43695;DHT22;29300;43.560;1.294;2022-12-18T00:48:56;6.50;99.90
43695;DHT22;29300;43.560;1.294;2022-12-18T00:51:23;6.50;99.90
43695;DHT22;29300;43.560;1.294;2022-12-18T00:53:49;6.60;99.90
43695;DHT22;29300;43.560;1.294;2022-12-18T00:56:15;6.50;99.90
43695;DHT22;29300;43.560;1.294;2022-12-18T00:58:40;6.30;99.90
43695;DHT22;29300;43.560;1.294;2022-12-18T01:01:06;6.40;99.90
43695;DHT22;29300;43.560;1.294;2022-12-18T01:03:32;6.40;99.90
43695;DHT22;29300;43.560;1.294;2022-12-18T01:05:58;6.40;99.90
43695;DHT22;29300;43.560;1.294;2022-12-18T01:08:24;6.40;99.90
43695;DHT22;29300;43.560;1.294;2022-12-18T01:10:50;6.50;99.90
43695;DHT22;29300;43.560;1.294;2022-12-18T01:13:15;6.40;99.90
43695;DHT22;29300;43.560;1.294;2022-12-18T01:15:48;6.40;99.90
43695;DHT22;29300;43.560;1.294;2022-12-18T01:18:14;6.40;99.90
43695;DHT22;29300;43.560;1.294;2022-12-18T01:20:40;6.30;99.90
43695;DHT22;29300;43.560;1.294;2022-12-18T01:23:05;6.40;99.90
43695;DHT22;29300;43.560;1.294;2022-12-18T01:25:31;6.40;99.90
43695;DHT22;29300;43.560;1.294;2022-12-18T01:27:57;6.30;99.90
43695;DHT22;29300;43.560;1.294;2022-12-18T01:30:23;6.30;99.90
43695;DHT22;29300;43.560;1.294;2022-12-18T01:32:48;6.30;99.90
43695;DHT22;29300;43.560;1.294;2022-12-18T01:35:14;6.30;99.90
43695;DHT22;29300;43.560;1.294;2022-12-18T01:37:40;6.30;99.90
43695;DHT22;29300;43.560;1.294;2022-12-18T01:40:06;6.40;99.90
43695;DHT22;29300;43.560;1.294;2022-12-18T01:42:32;6.40;99.90
43695;DHT22;29300;43.560;1.294;2022-12-18T01:50:12;6.30;99.90
43695;DHT22;29300;43.560;1.294;2022-12-18T01:52:41;6.30;99.90
43695;DHT22;29300;43.560;1.294;2022-12-18T01:55:08;6.30;99.90
43695;DHT22;29300;43.560;1.294;2022-12-18T01:57:35;6.30;99.90
43695;DHT22;29300;43.560;1.294;2022-12-18T02:00:07;6.30;99.90
43695;DHT22;29300;43.560;1.294;2022-12-18T02:02:33;6.30;99.90
43695;DHT22;29300;43.560;1.294;2022-12-18T02:04:59;6.30;99.90
43695;DHT22;29300;43.560;1.294;2022-12-18T02:07:42;6.30;99.90
43695;DHT22;29300;43.560;1.294;2022-12-18T02:12:45;6.30;99.90
43695;DHT22;29300;43.560;1.294;2022-12-18T02:18:03;6.20;99.90
43695;DHT22;29300;43.560;1.294;2022-12-18T02:20:32;6.20;99.90
43695;DHT22;29300;43.560;1.294;2022-12-18T02:28:20;6.10;99.90
43695;DHT22;29300;43.560;1.294;2022-12-18T02:30:49;6.10;99.90
43695;DHT22;29300;43.560;1.294;2022-12-18T02:33:17;6.20;99.90
43695;DHT22;29300;43.560;1.294;2022-12-18T02:35:45;6.10;99.90
43695;DHT22;29300;43.560;1.294;2022-12-18T02:38:12;6.00;99.90
43695;DHT22;29300;43.560;1.294;2022-12-18T02:40:40;6.00;99.90
43695;DHT22;29300;43.560;1.294;2022-12-18T02:43:09;5.90;99.90
43695;DHT22;29300;43.560;1.294;2022-12-18T02:45:46;5.80;99.90
43695;DHT22;29300;43.560;1.294;2022-12-18T02:48:11;5.80;99.90
43695;DHT22;29300;43.560;1.294;2022-12-18T02:51:15;5.90;99.90
43695;DHT22;29300;43.560;1.294;2022-12-18T02:53:43;5.80;99.90
43695;DHT22;29300;43.560;1.294;2022-12-18T02:56:20;5.70;99.90
43695;DHT22;29300;43.560;1.294;2022-12-18T02:59:07;5.70;99.90
43695;DHT22;29300;43.560;1.294;2022-12-18T03:04:55;5.70;99.90
43695;DHT22;29300;43.560;1.294;2022-12-18T03:07:33;5.70;99.90
43695;DHT22;29300;43.560;1.294;2022-12-18T03:10:00;5.70;99.90
43695;DHT22;29300;43.560;1.294;2022-12-18T03:12:33;5.70;99.90
43695;DHT22;29300;43.560;1.294;2022-12-18T03:15:13;5.60;99.90
43695;DHT22;29300;43.560;1.294;2022-12-18T03:17:44;5.50;99.90
43695;DHT22;29300;43.560;1.294;2022-12-18T03:20:18;5.40;99.90
43695;DHT22;29300;43.560;1.294;2022-12-18T03:22:48;5.50;99.90
43695;DHT22;29300;43.560;1.294;2022-12-18T03:25:16;5.40;99.90
43695;DHT22;29300;43.560;1.294;2022-12-18T03:27:47;5.20;99.90
43695;DHT22;29300;43.560;1.294;2022-12-18T03:30:15;5.20;99.90
43695;DHT22;29300;43.560;1.294;2022-12-18T03:33:04;5.20;99.90
43695;DHT22;29300;43.560;1.294;2022-12-18T03:35:35;5.10;99.90
43695;DHT22;29300;43.560;1.294;2022-12-18T03:38:00;5.00;99.90
43695;DHT22;29300;43.560;1.294;2022-12-18T03:40:40;5.00;99.90
43695;DHT22;29300;43.560;1.294;2022-12-18T03:43:12;4.90;99.90
43695;DHT22;29300;43.560;1.294;2022-12-18T03:45:54;4.80;99.90
43695;DHT22;29300;43.560;1.294;2022-12-18T03:48:29;4.90;99.90
43695;DHT22;29300;43.560;1.294;2022-12-18T03:53:28;5.00;99.90
43695;DHT22;29300;43.560;1.294;2022-12-18T03:55:59;5.00;99.90
43695;DHT22;29300;43.560;1.294;2022-12-18T03:58:26;4.90;99.90
43695;DHT22;29300;43.560;1.294;2022-12-18T04:00:55;4.90;99.90
43695;DHT22;29300;43.560;1.294;2022-12-18T04:03:23;4.80;99.90
43695;DHT22;29300;43.560;1.294;2022-12-18T04:05:51;5.00;99.90
43695;DHT22;29300;43.560;1.294;2022-12-18T04:08:17;5.00;99.90
43695;DHT22;29300;43.560;1.294;2022-12-18T04:10:44;5.00;99.90
43695;DHT22;29300;43.560;1.294;2022-12-18T04:13:10;5.00;99.90
43695;DHT22;29300;43.560;1.294;2022-12-18T04:15:36;5.00;99.90
43695;DHT22;29300;43.560;1.294;2022-12-18T04:18:03;4.90;99.90
43695;DHT22;29300;43.560;1.294;2022-12-18T04:20:29;4.80;99.90
43695;DHT22;29300;43.560;1.294;2022-12-18T04:22:54;4.90;99.90
43695;DHT22;29300;43.560;1.294;2022-12-18T04:25:20;4.90;99.90
43695;DHT22;29300;43.560;1.294;2022-12-18T04:27:46;4.90;99.90
43695;DHT22;29300;43.560;1.294;2022-12-18T04:30:11;4.80;99.90
43695;DHT22;29300;43.560;1.294;2022-12-18T04:32:37;4.80;99.90
43695;DHT22;29300;43.560;1.294;2022-12-18T04:35:03;4.80;99.90
43695;DHT22;29300;43.560;1.294;2022-12-18T04:37:32;4.70;99.90
43695;DHT22;29300;43.560;1.294;2022-12-18T04:39:57;4.70;99.90
43695;DHT22;29300;43.560;1.294;2022-12-18T04:42:23;4.70;99.90
43695;DHT22;29300;43.560;1.294;2022-12-18T04:44:49;4.70;99.90
43695;DHT22;29300;43.560;1.294;2022-12-18T04:47:14;4.70;99.90
43695;DHT22;29300;43.560;1.294;2022-12-18T04:49:40;4.70;99.90
43695;DHT22;29300;43.560;1.294;2022-12-18T04:52:06;4.70;99.90
43695;DHT22;29300;43.560;1.294;2022-12-18T04:54:32;4.60;99.90
43695;DHT22;29300;43.560;1.294;2022-12-18T04:56:58;4.50;99.90
43695;DHT22;29300;43.560;1.294;2022-12-18T04:59:23;4.60;99.90
43695;DHT22;29300;43.560;1.294;2022-12-18T05:01:49;4.50;99.90
43695;DHT22;29300;43.560;1.294;2022-12-18T05:04:15;4.60;99.90
43695;DHT22;29300;43.560;1.294;2022-12-18T05:06:40;4.60;99.90
43695;DHT22;29300;43.560;1.294;2022-12-18T05:09:06;4.60;99.90
43695;DHT22;29300;43.560;1.294;2022-12-18T05:11:32;4.60;99.90
43695;DHT22;29300;43.560;1.294;2022-12-18T05:13:58;4.40;99.90
43695;DHT22;29300;43.560;1.294;2022-12-18T05:16:23;4.40;99.90
43695;DHT22;29300;43.560;1.294;2022-12-18T05:18:49;4.30;99.90
43695;DHT22;29300;43.560;1.294;2022-12-18T05:21:15;4.30;99.90
43695;DHT22;29300;43.560;1.294;2022-12-18T05:23:41;4.30;99.90
43695;DHT22;29300;43.560;1.294;2022-12-18T05:26:07;4.30;99.90
43695;DHT22;29300;43.560;1.294;2022-12-18T05:28:34;4.30;99.90
43695;DHT22;29300;43.560;1.294;2022-12-18T05:31:02;4.40;99.90
43695;DHT22;29300;43.560;1.294;2022-12-18T05:33:30;4.30;99.90
43695;DHT22;29300;43.560;1.294;2022-12-18T05:35:59;4.30;99.90
43695;DHT22;29300;43.560;1.294;2022-12-18T05:38:26;4.30;99.90
43695;DHT22;29300;43.560;1.294;2022-12-18T05:40:53;4.30;99.90
43695;DHT22;29300;43.560;1.294;2022-12-18T05:43:19;4.20;99.90
43695;DHT22;29300;43.560;1.294;2022-12-18T05:45:47;4.20;99.90
43695;DHT22;29300;43.560;1.294;2022-12-18T05:48:13;4.10;99.90
43695;DHT22;29300;43.560;1.294;2022-12-18T05:50:41;4.00;99.90
43695;DHT22;29300;43.560;1.294;2022-12-18T05:53:07;4.00;99.90
43695;DHT22;29300;43.560;1.294;2022-12-18T05:55:37;4.10;99.90
43695;DHT22;29300;43.560;1.294;2022-12-18T05:58:05;4.10;99.90
43695;DHT22;29300;43.560;1.294;2022-12-18T06:00:32;4.10;99.90
43695;DHT22;29300;43.560;1.294;2022-12-18T06:02:59;4.00;99.90
43695;DHT22;29300;43.560;1.294;2022-12-18T06:05:25;4.10;99.90
43695;DHT22;29300;43.560;1.294;2022-12-18T06:07:51;4.00;99.90
43695;DHT22;29300;43.560;1.294;2022-12-18T06:10:17;3.90;99.90
43695;DHT22;29300;43.560;1.294;2022-12-18T06:12:42;3.90;99.90
43695;DHT22;29300;43.560;1.294;2022-12-18T06:15:08;4.00;99.90
43695;DHT22;29300;43.560;1.294;2022-12-18T06:17:34;3.80;99.90
43695;DHT22;29300;43.560;1.294;2022-12-18T06:20:00;3.80;99.90
43695;DHT22;29300;43.560;1.294;2022-12-18T06:22:27;3.70;99.90
43695;DHT22;29300;43.560;1.294;2022-12-18T06:24:52;3.70;99.90
43695;DHT22;29300;43.560;1.294;2022-12-18T06:27:18;3.90;99.90
43695;DHT22;29300;43.560;1.294;2022-12-18T06:29:44;3.90;99.90
43695;DHT22;29300;43.560;1.294;2022-12-18T06:32:11;3.90;99.90
43695;DHT22;29300;43.560;1.294;2022-12-18T06:34:40;3.90;99.90
43695;DHT22;29300;43.560;1.294;2022-12-18T06:37:06;3.90;99.90
43695;DHT22;29300;43.560;1.294;2022-12-18T06:39:31;3.70;99.90
43695;DHT22;29300;43.560;1.294;2022-12-18T06:41:57;3.60;99.90
43695;DHT22;29300;43.560;1.294;2022-12-18T06:44:23;3.70;99.90
43695;DHT22;29300;43.560;1.294;2022-12-18T06:46:48;3.60;99.90
43695;DHT22;29300;43.560;1.294;2022-12-18T06:49:14;3.70;99.90
43695;DHT22;29300;43.560;1.294;2022-12-18T06:51:41;3.60;99.90
43695;DHT22;29300;43.560;1.294;2022-12-18T06:54:07;3.60;99.90
43695;DHT22;29300;43.560;1.294;2022-12-18T06:56:33;3.60;99.90
43695;DHT22;29300;43.560;1.294;2022-12-18T06:58:59;3.60;99.90
43695;DHT22;29300;43.560;1.294;2022-12-18T07:01:24;3.60;99.90
43695;DHT22;29300;43.560;1.294;2022-12-18T07:03:54;3.60;99.90
43695;DHT22;29300;43.560;1.294;2022-12-18T07:06:22;3.40;99.90
43695;DHT22;29300;43.560;1.294;2022-12-18T07:08:49;3.40;99.90
43695;DHT22;29300;43.560;1.294;2022-12-18T07:11:15;3.40;99.90
43695;DHT22;29300;43.560;1.294;2022-12-18T07:13:41;3.30;99.90
43695;DHT22;29300;43.560;1.294;2022-12-18T07:16:13;3.40;99.90
43695;DHT22;29300;43.560;1.294;2022-12-18T07:18:38;3.40;99.90
43695;DHT22;29300;43.560;1.294;2022-12-18T07:21:06;3.40;99.90
43695;DHT22;29300;43.560;1.294;2022-12-18T07:23:33;3.40;99.90
43695;DHT22;29300;43.560;1.294;2022-12-18T07:26:10;3.40;99.90
43695;DHT22;29300;43.560;1.294;2022-12-18T07:28:38;3.20;99.90
43695;DHT22;29300;43.560;1.294;2022-12-18T07:31:14;3.30;99.90
43695;DHT22;29300;43.560;1.294;2022-12-18T07:33:41;3.30;99.90
43695;DHT22;29300;43.560;1.294;2022-12-18T07:36:08;3.40;99.90
43695;DHT22;29300;43.560;1.294;2022-12-18T07:38:35;3.40;99.90
43695;DHT22;29300;43.560;1.294;2022-12-18T07:41:09;3.40;99.90
43695;DHT22;29300;43.560;1.294;2022-12-18T07:43:36;3.50;99.90
43695;DHT22;29300;43.560;1.294;2022-12-18T07:46:02;3.40;99.90
43695;DHT22;29300;43.560;1.294;2022-12-18T07:48:28;3.50;99.90
43695;DHT22;29300;43.560;1.294;2022-12-18T07:50:58;3.50;99.90
43695;DHT22;29300;43.560;1.294;2022-12-18T07:53:24;3.80;99.90
43695;DHT22;29300;43.560;1.294;2022-12-18T07:55:58;3.90;99.90
43695;DHT22;29300;43.560;1.294;2022-12-18T07:58:24;3.80;99.90
43695;DHT22;29300;43.560;1.294;2022-12-18T08:00:50;3.80;99.90
43695;DHT22;29300;43.560;1.294;2022-12-18T08:03:16;4.00;99.90
43695;DHT22;29300;43.560;1.294;2022-12-18T08:05:41;4.10;99.90
43695;DHT22;29300;43.560;1.294;2022-12-18T08:08:07;4.20;99.90
43695;DHT22;29300;43.560;1.294;2022-12-18T08:10:33;4.30;99.90
43695;DHT22;29300;43.560;1.294;2022-12-18T08:12:58;4.40;99.90
43695;DHT22;29300;43.560;1.294;2022-12-18T08:15:24;4.40;99.90
43695;DHT22;29300;43.560;1.294;2022-12-18T08:17:50;4.40;99.90
43695;DHT22;29300;43.560;1.294;2022-12-18T08:20:15;4.40;99.90
43695;DHT22;29300;43.560;1.294;2022-12-18T08:22:44;4.40;99.90
43695;DHT22;29300;43.560;1.294;2022-12-18T08:25:10;4.40;99.90
43695;DHT22;29300;43.560;1.294;2022-12-18T08:27:36;4.60;99.90
43695;DHT22;29300;43.560;1.294;2022-12-18T08:30:02;4.50;99.90
43695;DHT22;29300;43.560;1.294;2022-12-18T08:32:28;4.60;99.90
43695;DHT22;29300;43.560;1.294;2022-12-18T08:34:54;4.60;99.90
43695;DHT22;29300;43.560;1.294;2022-12-18T08:37:19;4.70;99.90
43695;DHT22;29300;43.560;1.294;2022-12-18T08:39:45;4.80;99.90
43695;DHT22;29300;43.560;1.294;2022-12-18T08:42:11;5.20;99.90
43695;DHT22;29300;43.560;1.294;2022-12-18T08:44:55;5.40;99.90
43695;DHT22;29300;43.560;1.294;2022-12-18T08:47:22;5.50;99.90
43695;DHT22;29300;43.560;1.294;2022-12-18T08:49:48;5.50;99.90
43695;DHT22;29300;43.560;1.294;2022-12-18T08:52:13;5.70;99.90
43695;DHT22;29300;43.560;1.294;2022-12-18T08:54:39;5.80;99.90
43695;DHT22;29300;43.560;1.294;2022-12-18T08:57:05;5.80;99.90
43695;DHT22;29300;43.560;1.294;2022-12-18T08:59:30;6.10;99.90
43695;DHT22;29300;43.560;1.294;2022-12-18T09:01:56;8.10;99.90
43695;DHT22;29300;43.560;1.294;2022-12-18T09:04:22;8.90;99.90
43695;DHT22;29300;43.560;1.294;2022-12-18T09:06:48;9.80;99.90
43695;DHT22;29300;43.560;1.294;2022-12-18T09:09:13;11.20;99.90
43695;DHT22;29300;43.560;1.294;2022-12-18T09:11:39;12.00;99.90
43695;DHT22;29300;43.560;1.294;2022-12-18T09:14:05;11.40;99.90
43695;DHT22;29300;43.560;1.294;2022-12-18T09:16:31;9.60;99.90
43695;DHT22;29300;43.560;1.294;2022-12-18T09:18:57;8.90;99.90
43695;DHT22;29300;43.560;1.294;2022-12-18T09:21:33;8.40;99.90
43695;DHT22;29300;43.560;1.294;2022-12-18T09:23:59;8.30;99.90
43695;DHT22;29300;43.560;1.294;2022-12-18T09:26:26;8.20;99.90
43695;DHT22;29300;43.560;1.294;2022-12-18T09:28:52;8.30;99.90
43695;DHT22;29300;43.560;1.294;2022-12-18T09:31:20;8.30;99.90
43695;DHT22;29300;43.560;1.294;2022-12-18T09:33:46;8.40;99.90
43695;DHT22;29300;43.560;1.294;2022-12-18T09:36:14;8.40;99.90
43695;DHT22;29300;43.560;1.294;2022-12-18T09:38:41;8.50;99.90
43695;DHT22;29300;43.560;1.294;2022-12-18T09:41:36;8.60;99.90
43695;DHT22;29300;43.560;1.294;2022-12-18T09:49:28;8.80;99.90
43695;DHT22;29300;43.560;1.294;2022-12-18T09:52:04;8.80;99.90
43695;DHT22;29300;43.560;1.294;2022-12-18T09:54:40;8.90;99.90
43695;DHT22;29300;43.560;1.294;2022-12-18T09:57:06;9.00;99.90
43695;DHT22;29300;43.560;1.294;2022-12-18T09:59:37;9.00;99.90
43695;DHT22;29300;43.560;1.294;2022-12-18T10:02:20;9.10;99.90
43695;DHT22;29300;43.560;1.294;2022-12-18T10:05:07;9.10;99.90
43695;DHT22;29300;43.560;1.294;2022-12-18T10:07:49;9.20;99.90
43695;DHT22;29300;43.560;1.294;2022-12-18T10:10:43;9.30;99.90
43695;DHT22;29300;43.560;1.294;2022-12-18T10:21:18;9.40;99.90
43695;DHT22;29300;43.560;1.294;2022-12-18T10:26:22;9.40;99.90
43695;DHT22;29300;43.560;1.294;2022-12-18T10:28:48;9.40;99.90
43695;DHT22;29300;43.560;1.294;2022-12-18T10:31:17;9.40;99.90
43695;DHT22;29300;43.560;1.294;2022-12-18T10:33:44;9.40;99.90
43695;DHT22;29300;43.560;1.294;2022-12-18T10:36:09;9.50;99.90
43695;DHT22;29300;43.560;1.294;2022-12-18T10:38:35;9.60;99.90
43695;DHT22;29300;43.560;1.294;2022-12-18T10:41:08;9.70;99.90
43695;DHT22;29300;43.560;1.294;2022-12-18T10:46:36;9.70;99.90
43695;DHT22;29300;43.560;1.294;2022-12-18T10:49:02;9.70;99.90
43695;DHT22;29300;43.560;1.294;2022-12-18T10:51:33;9.80;99.90
43695;DHT22;29300;43.560;1.294;2022-12-18T10:54:00;9.70;99.90
43695;DHT22;29300;43.560;1.294;2022-12-18T10:56:28;9.70;99.90
43695;DHT22;29300;43.560;1.294;2022-12-18T10:59:06;9.80;99.90
43695;DHT22;29300;43.560;1.294;2022-12-18T11:01:53;9.80;99.90
43695;DHT22;29300;43.560;1.294;2022-12-18T11:04:29;9.80;99.90
43695;DHT22;29300;43.560;1.294;2022-12-18T11:09:35;9.80;99.90
43695;DHT22;29300;43.560;1.294;2022-12-18T11:12:14;10.00;99.90
43695;DHT22;29300;43.560;1.294;2022-12-18T11:17:32;9.80;99.90
43695;DHT22;29300;43.560;1.294;2022-12-18T11:20:02;9.70;99.90
43695;DHT22;29300;43.560;1.294;2022-12-18T11:22:31;9.80;99.90
43695;DHT22;29300;43.560;1.294;2022-12-18T11:30:45;10.10;99.90
43695;DHT22;29300;43.560;1.294;2022-12-18T11:33:21;10.10;99.90
43695;DHT22;29300;43.560;1.294;2022-12-18T11:38:22;10.00;99.90
43695;DHT22;29300;43.560;1.294;2022-12-18T11:41:21;10.10;99.90
43695;DHT22;29300;43.560;1.294;2022-12-18T11:44:13;10.00;99.90
43695;DHT22;29300;43.560;1.294;2022-12-18T11:46:49;10.10;99.90
43695;DHT22;29300;43.560;1.294;2022-12-18T11:49:27;10.10;99.90
43695;DHT22;29300;43.560;1.294;2022-12-18T11:51:59;10.20;99.90
43695;DHT22;29300;43.560;1.294;2022-12-18T11:54:26;10.10;99.90
43695;DHT22;29300;43.560;1.294;2022-12-18T11:57:15;10.20;99.90
43695;DHT22;29300;43.560;1.294;2022-12-18T11:59:54;10.20;99.90
43695;DHT22;29300;43.560;1.294;2022-12-18T12:05:12;10.30;99.90
43695;DHT22;29300;43.560;1.294;2022-12-18T12:08:13;10.30;99.90
43695;DHT22;29300;43.560;1.294;2022-12-18T12:17:09;10.40;99.90
43695;DHT22;29300;43.560;1.294;2022-12-18T12:22:10;10.30;99.90
43695;DHT22;29300;43.560;1.294;2022-12-18T12:38:14;10.40;99.90
43695;DHT22;29300;43.560;1.294;2022-12-18T12:40:49;10.40;99.90
43695;DHT22;29300;43.560;1.294;2022-12-18T12:43:24;10.40;99.90
43695;DHT22;29300;43.560;1.294;2022-12-18T12:46:05;10.40;99.90
43695;DHT22;29300;43.560;1.294;2022-12-18T12:49:00;10.60;99.90
43695;DHT22;29300;43.560;1.294;2022-12-18T12:51:33;10.70;99.90
43695;DHT22;29300;43.560;1.294;2022-12-18T12:54:01;10.70;99.90
43695;DHT22;29300;43.560;1.294;2022-12-18T12:56:39;10.90;99.90
43695;DHT22;29300;43.560;1.294;2022-12-18T12:59:21;10.80;99.90
43695;DHT22;29300;43.560;1.294;2022-12-18T13:04:36;10.70;99.90
43695;DHT22;29300;43.560;1.294;2022-12-18T13:07:17;10.70;99.90
43695;DHT22;29300;43.560;1.294;2022-12-18T13:13:05;10.60;99.90
43695;DHT22;29300;43.560;1.294;2022-12-18T13:15:41;10.60;99.90
43695;DHT22;29300;43.560;1.294;2022-12-18T13:20:46;10.60;99.90
43695;DHT22;29300;43.560;1.294;2022-12-18T13:25:54;10.70;99.90
43695;DHT22;29300;43.560;1.294;2022-12-18T13:31:06;10.70;99.90
43695;DHT22;29300;43.560;1.294;2022-12-18T13:33:36;10.60;99.90
43695;DHT22;29300;43.560;1.294;2022-12-18T13:36:27;10.70;99.90
43695;DHT22;29300;43.560;1.294;2022-12-18T13:41:40;10.60;99.90
43695;DHT22;29300;43.560;1.294;2022-12-18T13:44:26;10.60;99.90
43695;DHT22;29300;43.560;1.294;2022-12-18T13:46:54;10.60;99.90
43695;DHT22;29300;43.560;1.294;2022-12-18T13:51:57;10.60;99.90
43695;DHT22;29300;43.560;1.294;2022-12-18T13:54:39;10.60;99.90
43695;DHT22;29300;43.560;1.294;2022-12-18T13:57:22;10.60;99.90
43695;DHT22;29300;43.560;1.294;2022-12-18T13:59:48;10.60;99.90
43695;DHT22;29300;43.560;1.294;2022-12-18T14:02:15;10.60;99.90
43695;DHT22;29300;43.560;1.294;2022-12-18T14:04:44;10.50;99.90
43695;DHT22;29300;43.560;1.294;2022-12-18T14:07:19;10.50;99.90
43695;DHT22;29300;43.560;1.294;2022-12-18T14:09:54;10.40;99.90
43695;DHT22;29300;43.560;1.294;2022-12-18T14:15:40;10.50;99.90
43695;DHT22;29300;43.560;1.294;2022-12-18T14:18:25;10.60;99.90
43695;DHT22;29300;43.560;1.294;2022-12-18T14:20:54;10.60;99.90
43695;DHT22;29300;43.560;1.294;2022-12-18T14:25:57;10.60;99.90
43695;DHT22;29300;43.560;1.294;2022-12-18T14:28:23;10.60;99.90
43695;DHT22;29300;43.560;1.294;2022-12-18T14:30:49;10.60;99.90
43695;DHT22;29300;43.560;1.294;2022-12-18T14:33:19;10.60;99.90
43695;DHT22;29300;43.560;1.294;2022-12-18T14:38:27;10.60;99.90
43695;DHT22;29300;43.560;1.294;2022-12-18T14:41:06;10.50;99.90
43695;DHT22;29300;43.560;1.294;2022-12-18T14:43:37;10.50;99.90
43695;DHT22;29300;43.560;1.294;2022-12-18T14:46:05;10.50;99.90
43695;DHT22;29300;43.560;1.294;2022-12-18T14:48:41;10.40;99.90
43695;DHT22;29300;43.560;1.294;2022-12-18T14:54:14;10.50;99.90
43695;DHT22;29300;43.560;1.294;2022-12-18T14:56:33;10.50;99.90
43695;DHT22;29300;43.560;1.294;2022-12-18T14:59:01;10.40;99.90
43695;DHT22;29300;43.560;1.294;2022-12-18T15:01:36;10.40;99.90
43695;DHT22;29300;43.560;1.294;2022-12-18T15:04:03;10.50;99.90
43695;DHT22;29300;43.560;1.294;2022-12-18T15:06:35;10.40;99.90
43695;DHT22;29300;43.560;1.294;2022-12-18T15:09:23;10.40;99.90
43695;DHT22;29300;43.560;1.294;2022-12-18T15:11:58;10.40;99.90
43695;DHT22;29300;43.560;1.294;2022-12-18T15:14:32;10.40;99.90
43695;DHT22;29300;43.560;1.294;2022-12-18T15:16:59;10.30;99.90
43695;DHT22;29300;43.560;1.294;2022-12-18T15:19:43;10.30;99.90
43695;DHT22;29300;43.560;1.294;2022-12-18T15:24:49;10.30;99.90
43695;DHT22;29300;43.560;1.294;2022-12-18T15:27:27;10.30;99.90
43695;DHT22;29300;43.560;1.294;2022-12-18T15:30:19;10.30;99.90
43695;DHT22;29300;43.560;1.294;2022-12-18T15:32:46;10.30;99.90
43695;DHT22;29300;43.560;1.294;2022-12-18T15:37:43;10.20;99.90
43695;DHT22;29300;43.560;1.294;2022-12-18T15:40:23;10.20;99.90
43695;DHT22;29300;43.560;1.294;2022-12-18T15:42:52;10.10;99.90
43695;DHT22;29300;43.560;1.294;2022-12-18T15:45:37;10.10;99.90
43695;DHT22;29300;43.560;1.294;2022-12-18T15:48:21;10.10;99.90
43695;DHT22;29300;43.560;1.294;2022-12-18T15:50:48;10.00;99.90
43695;DHT22;29300;43.560;1.294;2022-12-18T15:53:15;10.00;99.90
43695;DHT22;29300;43.560;1.294;2022-12-18T15:55:40;10.00;99.90
43695;DHT22;29300;43.560;1.294;2022-12-18T15:58:25;9.90;99.90
43695;DHT22;29300;43.560;1.294;2022-12-18T16:00:50;9.80;99.90
43695;DHT22;29300;43.560;1.294;2022-12-18T16:03:16;9.80;99.90
43695;DHT22;29300;43.560;1.294;2022-12-18T16:05:42;9.70;99.90
43695;DHT22;29300;43.560;1.294;2022-12-18T16:08:07;9.70;99.90
43695;DHT22;29300;43.560;1.294;2022-12-18T16:10:33;9.70;99.90
43695;DHT22;29300;43.560;1.294;2022-12-18T16:13:00;9.80;99.90
43695;DHT22;29300;43.560;1.294;2022-12-18T16:15:29;9.70;99.90
43695;DHT22;29300;43.560;1.294;2022-12-18T16:17:54;9.60;99.90
43695;DHT22;29300;43.560;1.294;2022-12-18T16:20:22;9.60;99.90
43695;DHT22;29300;43.560;1.294;2022-12-18T16:22:48;9.60;99.90
43695;DHT22;29300;43.560;1.294;2022-12-18T16:25:20;9.60;99.90
43695;DHT22;29300;43.560;1.294;2022-12-18T16:27:47;9.50;99.90
43695;DHT22;29300;43.560;1.294;2022-12-18T16:30:21;9.50;99.90
43695;DHT22;29300;43.560;1.294;2022-12-18T16:32:47;9.40;99.90
43695;DHT22;29300;43.560;1.294;2022-12-18T16:35:14;9.40;99.90
43695;DHT22;29300;43.560;1.294;2022-12-18T16:37:41;9.40;99.90
43695;DHT22;29300;43.560;1.294;2022-12-18T16:40:09;9.30;99.90
43695;DHT22;29300;43.560;1.294;2022-12-18T16:42:36;9.40;99.90
43695;DHT22;29300;43.560;1.294;2022-12-18T16:45:03;9.40;99.90
43695;DHT22;29300;43.560;1.294;2022-12-18T16:47:29;9.40;99.90
43695;DHT22;29300;43.560;1.294;2022-12-18T16:49:55;9.30;99.90
43695;DHT22;29300;43.560;1.294;2022-12-18T16:52:21;9.30;99.90
43695;DHT22;29300;43.560;1.294;2022-12-18T16:54:47;9.30;99.90
43695;DHT22;29300;43.560;1.294;2022-12-18T16:57:15;9.40;99.90
43695;DHT22;29300;43.560;1.294;2022-12-18T16:59:41;9.40;99.90
43695;DHT22;29300;43.560;1.294;2022-12-18T17:02:13;9.40;99.90
43695;DHT22;29300;43.560;1.294;2022-12-18T17:04:40;9.30;99.90
43695;DHT22;29300;43.560;1.294;2022-12-18T17:07:06;9.30;99.90
43695;DHT22;29300;43.560;1.294;2022-12-18T17:09:32;9.40;99.90
43695;DHT22;29300;43.560;1.294;2022-12-18T17:11:58;9.40;99.90
43695;DHT22;29300;43.560;1.294;2022-12-18T17:14:25;9.50;99.90
43695;DHT22;29300;43.560;1.294;2022-12-18T17:16:52;9.50;99.90
43695;DHT22;29300;43.560;1.294;2022-12-18T17:19:22;9.50;99.90
43695;DHT22;29300;43.560;1.294;2022-12-18T17:21:49;9.60;99.90
43695;DHT22;29300;43.560;1.294;2022-12-18T17:24:16;9.60;99.90
43695;DHT22;29300;43.560;1.294;2022-12-18T17:26:42;9.70;99.90
43695;DHT22;29300;43.560;1.294;2022-12-18T17:29:12;9.70;99.90
43695;DHT22;29300;43.560;1.294;2022-12-18T17:31:38;9.80;99.90
43695;DHT22;29300;43.560;1.294;2022-12-18T17:34:03;9.80;99.90
43695;DHT22;29300;43.560;1.294;2022-12-18T17:36:30;9.90;99.90
43695;DHT22;29300;43.560;1.294;2022-12-18T17:38:59;10.10;99.90
43695;DHT22;29300;43.560;1.294;2022-12-18T17:41:25;10.20;99.90
43695;DHT22;29300;43.560;1.294;2022-12-18T17:43:56;10.20;99.90
43695;DHT22;29300;43.560;1.294;2022-12-18T17:46:22;10.30;99.90
43695;DHT22;29300;43.560;1.294;2022-12-18T17:48:48;10.30;99.90
43695;DHT22;29300;43.560;1.294;2022-12-18T17:51:15;10.40;99.90
43695;DHT22;29300;43.560;1.294;2022-12-18T17:53:41;10.30;99.90